Time;durP1;ratioP1;P1;durP2;ratioP2;P2;SDS_P1;SDS_P2;PMS_P1;PMS_P2;Temp;Humidity;BMP_temperature;BMP_pressure;BME280_temperature;BME280_humidity;BME280_pressure;Samples;Min_cycle;Max_cycle;Signal;HPM_P1;HPM_P2
2023/03/31 00:00:23;;;;;;;12.30;3.67;;;14.60;77.30;;;17.02;53.71;100232.28;5035039;28;20198;-61
2023/03/31 00:02:52;;;;;;;10.90;3.50;;;14.60;77.40;;;17.00;54.10;100234.38;5035208;28;20277;-60
2023/03/31 00:05:20;;;;;;;9.27;4.17;;;14.60;77.70;;;17.00;53.97;100229.81;5034618;28;20238;-58
2023/03/31 00:07:47;;;;;;;8.63;3.70;;;14.60;77.80;;;17.06;53.82;100225.44;5034150;28;20193;-60
2023/03/31 00:10:18;;;;;;;6.47;3.20;;;14.50;77.70;;;16.96;54.40;100228.66;5048375;28;20193;-61
2023/03/31 00:12:45;;;;;;;9.17;3.70;;;14.50;78.60;;;17.01;54.78;100226.16;5050836;28;20192;-59
2023/03/31 00:15:13;;;;;;;12.30;4.40;;;14.50;78.90;;;17.03;54.42;100226.72;5050164;28;20240;-62
2023/03/31 00:17:42;;;;;;;12.10;4.00;;;14.50;79.00;;;17.05;54.41;100214.00;5054710;28;20217;-61
2023/03/31 00:20:11;;;;;;;12.77;4.23;;;14.50;79.30;;;16.96;55.40;100212.72;5055047;28;20197;-61
2023/03/31 00:22:45;;;;;;;7.67;3.77;;;14.50;80.30;;;17.01;55.14;100223.47;5054693;28;20221;-61
2023/03/31 00:25:13;;;;;;;11.80;3.53;;;14.50;79.80;;;17.08;54.87;100215.41;5055028;28;20232;-59
2023/03/31 00:27:42;;;;;;;9.83;3.33;;;14.50;79.90;;;17.11;54.69;100207.78;5054163;28;20197;-59
2023/03/31 00:30:13;;;;;;;8.13;3.63;;;14.50;80.00;;;17.12;55.17;100211.22;5041292;28;20659;-61
2023/03/31 00:32:40;;;;;;;9.53;4.37;;;14.50;80.20;;;17.11;55.17;100201.66;5036472;28;20554;-60
2023/03/31 00:35:08;;;;;;;7.43;3.60;;;14.50;80.40;;;17.11;54.75;100205.13;5054069;28;20754;-59
2023/03/31 00:37:35;;;;;;;10.00;3.83;;;14.50;80.20;;;17.13;54.61;100197.72;5054090;28;20190;-61
2023/03/31 00:40:08;;;;;;;6.43;3.57;;;14.50;80.20;;;17.07;55.00;100193.31;5054315;28;20574;-58
2023/03/31 00:42:40;;;;;;;10.03;3.60;;;14.40;80.50;;;17.02;55.16;100181.75;5054151;28;20195;-61
2023/03/31 00:45:29;;;;;;;8.07;3.63;;;14.40;80.30;;;16.99;55.56;100190.19;5054067;28;20214;-60
2023/03/31 00:48:04;;;;;;;8.63;3.53;;;14.50;80.60;;;17.03;55.35;100192.16;5053620;28;20189;-60
2023/03/31 00:50:40;;;;;;;8.87;3.97;;;14.40;80.50;;;17.05;55.47;100179.44;5054315;28;20221;-61
2023/03/31 00:53:13;;;;;;;7.93;3.30;;;14.40;80.60;;;17.06;55.50;100175.75;5054028;28;20201;-61
2023/03/31 00:55:46;;;;;;;8.90;3.17;;;14.40;80.70;;;17.10;55.15;100171.56;5054257;28;20548;-62
2023/03/31 00:58:18;;;;;;;7.63;3.20;;;14.40;80.70;;;17.17;55.22;100166.94;5053355;28;20214;-59
2023/03/31 01:00:53;;;;;;;8.07;3.67;;;14.40;80.70;;;17.18;55.31;100173.91;5053983;28;20226;-61
2023/03/31 01:03:24;;;;;;;6.93;3.37;;;14.40;81.10;;;17.21;55.05;100167.31;5054162;28;20671;-59
2023/03/31 01:05:56;;;;;;;8.33;3.40;;;14.50;81.00;;;17.17;55.69;100161.63;5052833;28;20201;-60
2023/03/31 01:08:26;;;;;;;11.23;3.83;;;14.50;81.60;;;17.06;55.84;100153.66;5033863;28;20198;-59
2023/03/31 01:10:58;;;;;;;7.87;3.60;;;14.50;81.60;;;17.03;56.00;100154.94;5052743;28;20212;-61
2023/03/31 01:13:26;;;;;;;7.67;3.13;;;14.50;81.50;;;17.05;56.06;100152.84;5053240;28;20186;-61
2023/03/31 01:15:54;;;;;;;6.33;2.97;;;14.50;81.60;;;17.09;55.71;100151.31;5053872;28;20217;-60
2023/03/31 01:18:22;;;;;;;5.80;3.17;;;14.40;81.40;;;17.12;55.58;100136.75;5054045;28;20216;-61
2023/03/31 01:21:24;;;;;;;7.57;3.80;;;14.50;81.50;;;17.14;55.58;100129.38;5052903;28;20288;-62
2023/03/31 01:24:34;;;;;;;7.17;3.50;;;14.50;81.60;;;17.11;56.02;100127.19;5052325;28;20552;-61
2023/03/31 01:27:32;;;;;;;6.63;3.40;;;14.50;82.00;;;17.10;55.70;100118.38;5052883;28;20197;-61
2023/03/31 01:30:51;;;;;;;6.00;3.67;;;14.50;81.80;;;17.12;55.67;100116.28;5054025;28;20193;-60
2023/03/31 01:34:11;;;;;;;8.23;3.23;;;14.50;81.60;;;17.03;56.34;100111.56;5053904;28;20205;-60
2023/03/31 01:37:36;;;;;;;8.77;3.40;;;14.50;82.20;;;16.98;56.40;100103.47;5049346;28;20202;-61
2023/03/31 01:40:25;;;;;;;9.53;3.10;;;14.50;82.00;;;16.98;56.18;100092.84;5037597;28;20280;-59
2023/03/31 01:43:02;;;;;;;7.90;3.83;;;14.50;82.00;;;16.93;56.50;100090.88;5053764;28;20190;-60
2023/03/31 01:45:49;;;;;;;7.50;4.10;;;14.40;82.10;;;16.93;56.43;100088.22;5053907;28;20217;-60
2023/03/31 01:48:22;;;;;;;9.90;3.93;;;14.40;82.00;;;16.97;56.50;100089.38;5053461;28;20174;-60
2023/03/31 01:50:57;;;;;;;7.33;3.07;;;14.40;82.10;;;17.02;56.18;100084.16;5053926;28;20621;-59
2023/03/31 01:53:34;;;;;;;10.83;3.97;;;14.40;82.10;;;17.04;56.42;100089.25;5053097;28;20193;-61
2023/03/31 01:56:13;;;;;;;10.70;4.00;;;14.40;82.40;;;17.03;56.42;100079.66;5053233;28;21005;-59
2023/03/31 01:58:48;;;;;;;8.87;3.67;;;14.40;82.20;;;17.03;56.50;100075.16;5051526;28;20206;-59
2023/03/31 02:01:25;;;;;;;8.77;3.67;;;14.40;82.40;;;16.98;56.29;100069.72;5053077;28;20662;-61
2023/03/31 02:03:57;;;;;;;10.20;3.80;;;14.40;82.40;;;16.99;56.35;100060.72;5052933;28;20214;-63
2023/03/31 02:06:34;;;;;;;10.27;3.73;;;14.40;82.30;;;16.89;56.82;100057.81;5052845;28;20197;-63
2023/03/31 02:09:07;;;;;;;7.70;3.53;;;14.40;82.60;;;16.93;56.84;100053.66;5053237;28;20647;-60
2023/03/31 02:11:39;;;;;;;6.40;2.73;;;14.40;82.60;;;16.93;56.70;100048.34;5056313;28;20205;-61
2023/03/31 02:14:13;;;;;;;8.30;3.87;;;14.40;82.30;;;16.93;56.72;100043.00;5056615;28;20217;-61
2023/03/31 02:16:46;;;;;;;7.50;3.30;;;14.30;82.50;;;16.92;56.53;100042.19;5045573;28;20240;-60
2023/03/31 02:19:18;;;;;;;10.93;4.20;;;14.30;82.30;;;16.91;56.33;100043.25;5037339;28;20221;-58
2023/03/31 02:21:48;;;;;;;7.93;3.70;;;14.30;82.30;;;16.88;56.36;100040.25;5041437;28;20186;-60
2023/03/31 02:24:20;;;;;;;6.83;3.50;;;14.30;82.30;;;16.81;56.64;100032.41;5055990;28;20253;-61
2023/03/31 02:26:56;;;;;;;10.57;3.87;;;14.30;82.60;;;16.77;57.12;100033.91;5056875;28;20225;-60
2023/03/31 02:29:24;;;;;;;10.53;4.17;;;14.20;82.50;;;16.78;56.53;100040.03;5056815;28;20193;-61
2023/03/31 02:32:00;;;;;;;6.77;3.70;;;14.20;82.40;;;16.77;56.64;100041.06;5056398;28;20190;-60
2023/03/31 02:34:27;;;;;;;7.03;4.20;;;14.20;82.70;;;16.73;57.41;100039.94;5043801;28;20218;-62
2023/03/31 02:36:54;;;;;;;7.07;3.63;;;14.10;83.10;;;16.69;57.38;100039.56;5043486;28;20193;-61
2023/03/31 02:39:26;;;;;;;9.70;3.50;;;14.10;83.10;;;16.68;57.05;100034.50;5056672;28;20673;-59
2023/03/31 02:41:56;;;;;;;11.07;3.60;;;14.10;82.80;;;16.74;57.20;100028.25;5056722;28;20638;-59
2023/03/31 02:44:23;;;;;;;8.80;4.00;;;14.10;82.90;;;16.74;56.94;100023.72;5056170;28;20209;-58
2023/03/31 02:46:51;;;;;;;9.50;3.53;;;14.10;82.90;;;16.72;56.93;100019.69;5056437;28;20216;-62
2023/03/31 02:49:20;;;;;;;6.53;3.40;;;14.10;83.00;;;16.75;56.95;100013.91;5055629;28;20252;-61
2023/03/31 02:52:08;;;;;;;8.43;3.53;;;14.10;82.70;;;16.74;56.60;100007.78;5055726;28;20265;-59
2023/03/31 02:55:00;;;;;;;9.17;3.17;;;14.10;82.90;;;16.76;56.68;100000.38;5054945;28;20636;-62
2023/03/31 02:57:57;;;;;;;6.87;3.50;;;14.10;82.90;;;16.72;56.51;100001.09;5071795;28;20234;-60
2023/03/31 03:00:40;;;;;;;9.37;3.77;;;14.10;83.00;;;16.73;56.46;100000.06;5055976;28;20194;-61
2023/03/31 03:03:28;;;;;;;7.40;3.27;;;14.10;82.70;;;16.72;56.63;99998.44;5056032;28;20193;-61
2023/03/31 03:06:12;;;;;;;8.30;3.60;;;14.10;82.90;;;16.67;56.81;99998.31;5041000;28;20269;-58
2023/03/31 03:09:00;;;;;;;8.50;3.83;;;14.10;82.90;;;16.61;56.86;99997.41;5051798;28;20179;-58
2023/03/31 03:11:38;;;;;;;8.57;3.60;;;14.10;82.80;;;16.58;57.28;99986.44;5055636;28;20182;-59
2023/03/31 03:14:22;;;;;;;8.03;3.67;;;14.10;83.10;;;16.59;56.87;99990.72;5055385;28;20562;-60
2023/03/31 03:16:58;;;;;;;8.97;3.20;;;14.10;82.90;;;16.50;57.25;99990.19;5054613;28;20228;-60
2023/03/31 03:19:25;;;;;;;8.43;3.50;;;14.00;83.10;;;16.52;57.31;99982.06;5055599;28;20255;-59
2023/03/31 03:21:53;;;;;;;7.77;3.20;;;14.00;82.90;;;16.49;57.26;99983.28;5045494;28;20570;-60
2023/03/31 03:24:21;;;;;;;7.43;3.10;;;14.00;82.90;;;16.48;57.21;99980.84;5056162;28;20213;-62
2023/03/31 03:26:48;;;;;;;8.53;3.00;;;14.00;82.90;;;16.48;57.27;99971.03;5055099;28;20282;-60
2023/03/31 03:29:16;;;;;;;7.03;2.93;;;14.00;82.80;;;16.50;56.92;99968.13;5055404;28;20193;-60
2023/03/31 03:31:43;;;;;;;5.23;2.90;;;13.90;82.60;;;16.52;57.03;99966.91;5054140;28;20193;-57
2023/03/31 03:34:10;;;;;;;8.17;2.73;;;14.00;82.90;;;16.58;56.94;99962.50;5054956;28;20206;-61
2023/03/31 03:36:38;;;;;;;8.97;3.20;;;13.90;82.60;;;16.59;56.84;99962.28;5046138;28;20198;-62
2023/03/31 03:39:06;;;;;;;9.77;3.00;;;14.00;82.90;;;16.60;56.88;99963.09;5035619;28;20245;-60
2023/03/31 03:41:35;;;;;;;5.27;3.27;;;14.00;82.80;;;16.62;56.64;99955.69;5034774;28;20659;-61
2023/03/31 03:44:02;;;;;;;11.47;3.77;;;14.00;82.60;;;16.62;56.73;99955.69;5034514;28;20210;-60
2023/03/31 03:46:30;;;;;;;8.97;3.07;;;14.00;82.70;;;16.57;56.89;99956.38;5052560;28;20198;-60
2023/03/31 03:48:57;;;;;;;7.63;3.27;;;14.00;82.50;;;16.61;56.73;99954.09;5054861;28;20194;-62
2023/03/31 03:51:24;;;;;;;8.03;2.90;;;14.00;82.50;;;16.65;56.42;99949.91;5051602;28;20198;-60
2023/03/31 03:53:51;;;;;;;9.33;3.30;;;14.00;82.60;;;16.62;56.46;99950.38;5036480;28;20602;-64
2023/03/31 03:56:18;;;;;;;9.90;3.20;;;14.00;82.50;;;16.61;56.42;99940.78;5034846;28;20190;-61
2023/03/31 03:58:45;;;;;;;7.23;3.20;;;14.00;82.40;;;16.63;56.32;99936.06;5034826;28;20237;-62
2023/03/31 04:01:13;;;;;;;5.70;2.97;;;14.00;82.50;;;16.61;56.30;99936.28;5034610;28;20193;-64
2023/03/31 04:03:41;;;;;;;6.83;2.77;;;14.00;82.30;;;16.58;56.49;99923.47;5034616;28;20656;-62
2023/03/31 04:06:08;;;;;;;7.27;3.00;;;14.00;82.20;;;16.59;56.71;99921.63;5033997;28;20197;-60
2023/03/31 04:08:35;;;;;;;9.23;3.00;;;14.00;82.20;;;16.54;56.42;99909.03;5036294;28;20201;-63
2023/03/31 04:11:08;;;;;;;8.97;2.77;;;13.90;82.10;;;16.42;56.58;99913.53;5044150;28;20214;-60
2023/03/31 04:13:35;;;;;;;7.80;2.63;;;13.90;82.10;;;16.38;56.68;99907.03;5045821;28;20193;-63
2023/03/31 04:16:02;;;;;;;7.00;2.40;;;13.90;82.10;;;16.41;56.54;99905.78;5054515;28;20686;-61
2023/03/31 04:18:29;;;;;;;9.80;2.87;;;13.90;82.20;;;16.39;57.02;99891.94;5054317;28;20221;-63
2023/03/31 04:21:03;;;;;;;10.20;3.20;;;13.90;82.40;;;16.37;57.39;99899.31;5054249;28;20592;-62
2023/03/31 04:23:30;;;;;;;7.93;3.17;;;13.80;82.50;;;16.35;57.15;99882.81;5045563;28;20186;-60
2023/03/31 04:25:58;;;;;;;9.57;3.20;;;13.80;82.50;;;16.34;56.80;99879.34;5034516;28;20198;-63
2023/03/31 04:28:25;;;;;;;8.67;3.30;;;13.80;82.50;;;16.31;57.29;99874.50;5034451;28;20182;-61
2023/03/31 04:30:57;;;;;;;9.60;3.60;;;13.80;82.70;;;16.33;57.24;99861.00;5034102;28;20284;-62
2023/03/31 04:33:24;;;;;;;7.43;3.20;;;13.80;82.60;;;16.28;57.04;99859.03;5033609;28;20277;-59
2023/03/31 04:35:51;;;;;;;7.73;3.20;;;13.80;82.50;;;16.26;56.96;99851.28;5033755;28;20194;-58
2023/03/31 04:38:22;;;;;;;7.13;3.93;;;13.70;82.40;;;16.22;57.25;99852.81;5035900;28;20741;-59
2023/03/31 04:40:51;;;;;;;7.43;3.97;;;13.70;82.60;;;16.22;57.28;99849.34;5054057;28;20687;-61
2023/03/31 04:43:20;;;;;;;11.40;3.67;;;13.70;82.60;;;16.17;57.28;99835.94;5053502;28;20190;-60
2023/03/31 04:45:46;;;;;;;7.53;3.60;;;13.70;82.60;;;16.17;57.39;99831.44;5053901;28;20198;-59
2023/03/31 04:48:14;;;;;;;9.43;4.20;;;13.70;82.70;;;16.19;57.13;99829.38;5053966;28;20190;-58
2023/03/31 04:50:41;;;;;;;6.57;3.67;;;13.60;82.70;;;16.18;57.22;99817.16;5054136;28;20189;-63
2023/03/31 04:53:08;;;;;;;7.10;4.17;;;13.60;82.70;;;16.17;57.21;99804.09;5052845;28;20206;-59
2023/03/31 04:55:36;;;;;;;7.23;4.77;;;13.60;82.90;;;16.21;57.13;99810.56;5040499;28;20237;-60
2023/03/31 04:58:03;;;;;;;7.37;4.27;;;13.60;82.80;;;16.20;56.89;99799.13;5033846;28;20644;-60
2023/03/31 05:00:30;;;;;;;8.83;4.13;;;13.60;82.80;;;16.21;56.95;99805.25;5033678;28;20211;-60
2023/03/31 05:02:58;;;;;;;11.93;5.40;;;13.60;82.90;;;16.17;57.11;99794.28;5033495;28;20639;-61
2023/03/31 05:05:26;;;;;;;10.87;5.43;;;13.60;83.00;;;16.14;56.84;99794.75;5032758;28;20241;-61
2023/03/31 05:07:53;;;;;;;8.77;5.23;;;13.60;83.00;;;16.11;57.30;99789.91;5047111;28;20214;-60
2023/03/31 05:10:20;;;;;;;7.83;4.90;;;13.60;83.00;;;16.07;57.37;99786.09;5048254;28;20205;-60
2023/03/31 05:12:49;;;;;;;11.60;5.77;;;13.50;83.60;;;16.06;57.03;99786.34;5038295;28;20190;-61
2023/03/31 05:15:16;;;;;;;10.40;5.73;;;13.50;83.00;;;16.04;57.29;99783.94;5040223;28;20277;-60
2023/03/31 05:17:43;;;;;;;10.97;6.13;;;13.50;83.00;;;16.04;57.23;99775.16;5033500;28;20191;-61
2023/03/31 05:20:12;;;;;;;9.57;6.00;;;13.50;83.00;;;16.00;57.56;99772.16;5034135;28;20242;-64
2023/03/31 05:22:40;;;;;;;12.70;6.53;;;13.40;83.20;;;15.96;57.37;99765.69;5034502;28;20199;-62
2023/03/31 05:25:13;;;;;;;9.13;5.60;;;13.40;83.30;;;15.94;57.76;99773.09;5032795;28;20233;-60
2023/03/31 05:27:40;;;;;;;11.17;5.97;;;13.40;83.30;;;15.93;57.96;99760.84;5052786;28;20186;-59
2023/03/31 05:30:09;;;;;;;9.43;5.53;;;13.40;83.60;;;15.90;57.85;99760.53;5053180;28;20200;-60
2023/03/31 05:32:36;;;;;;;11.33;6.50;;;13.40;83.80;;;15.88;58.12;99755.44;5053103;28;20192;-59
2023/03/31 05:35:04;;;;;;;10.53;5.80;;;13.40;83.80;;;15.91;57.98;99762.13;5053007;28;20275;-59
2023/03/31 05:37:31;;;;;;;8.97;5.40;;;13.40;84.00;;;15.90;58.25;99756.00;5052751;28;20631;-60
2023/03/31 05:39:58;;;;;;;9.23;6.07;;;13.40;84.30;;;15.86;58.19;99754.84;5052414;28;20222;-62
2023/03/31 05:42:25;;;;;;;7.90;6.00;;;13.30;84.40;;;15.82;58.55;99751.06;5051647;28;20216;-63
2023/03/31 05:44:52;;;;;;;9.67;6.00;;;13.30;84.50;;;15.81;58.43;99748.66;5053075;28;20224;-60
2023/03/31 05:47:22;;;;;;;11.50;5.80;;;13.30;84.60;;;15.76;58.66;99751.19;5056955;28;20193;-61
2023/03/31 05:49:49;;;;;;;12.47;5.67;;;13.30;84.80;;;15.74;58.87;99751.41;5057220;28;20183;-61
2023/03/31 05:52:17;;;;;;;9.37;6.07;;;13.30;85.00;;;15.68;59.29;99757.66;5048190;28;20201;-62
2023/03/31 05:54:44;;;;;;;11.20;6.40;;;13.20;85.20;;;15.67;59.49;99753.38;5036051;28;20225;-61
2023/03/31 05:57:11;;;;;;;8.80;5.83;;;13.20;85.70;;;15.63;59.88;99749.56;5041294;28;20189;-59
2023/03/31 05:59:39;;;;;;;10.53;6.40;;;13.20;85.90;;;15.63;59.48;99746.13;5056857;28;20264;-61
2023/03/31 06:02:10;;;;;;;13.10;6.73;;;13.10;85.80;;;15.62;60.10;99747.94;5055530;28;20202;-61
2023/03/31 06:04:38;;;;;;;11.50;6.47;;;13.10;86.40;;;15.65;59.84;99734.22;5040863;28;20293;-59
2023/03/31 06:07:05;;;;;;;9.87;5.67;;;13.10;86.50;;;15.62;59.77;99731.25;5044014;28;20283;-62
2023/03/31 06:09:32;;;;;;;7.73;5.07;;;13.10;86.50;;;15.55;60.25;99732.16;5043599;28;20206;-62
2023/03/31 06:11:59;;;;;;;9.70;5.80;;;13.00;87.00;;;15.54;60.95;99730.56;5057219;28;20194;-59
2023/03/31 06:14:26;;;;;;;10.50;5.17;;;13.00;87.20;;;15.57;60.34;99734.56;5055311;28;20320;-60
2023/03/31 06:16:54;;;;;;;7.57;5.30;;;13.00;87.00;;;15.51;60.70;99730.19;5048306;28;20214;-61
2023/03/31 06:19:23;;;;;;;8.37;5.73;;;13.00;87.70;;;15.45;61.00;99721.31;5036967;28;20210;-61
2023/03/31 06:21:51;;;;;;;10.20;6.07;;;13.00;87.80;;;15.45;61.19;99720.53;5037727;28;20640;-61
2023/03/31 06:24:18;;;;;;;8.47;5.83;;;13.00;88.10;;;15.45;61.44;99715.22;5036530;28;20225;-59
2023/03/31 06:26:45;;;;;;;10.73;5.60;;;12.90;88.30;;;15.45;61.30;99704.63;5037205;28;20179;-58
2023/03/31 06:29:12;;;;;;;7.37;5.73;;;13.00;88.30;;;15.42;61.50;99697.91;5036022;28;20202;-59
2023/03/31 06:31:39;;;;;;;7.00;5.40;;;12.90;88.40;;;15.48;61.72;99697.00;5038916;28;20258;-61
2023/03/31 06:34:06;;;;;;;10.93;5.40;;;12.90;88.90;;;15.53;61.41;99704.25;5056567;28;20214;-62
2023/03/31 06:36:33;;;;;;;9.30;6.33;;;12.90;88.90;;;15.53;61.49;99696.28;5057701;28;20665;-61
2023/03/31 06:39:02;;;;;;;7.47;5.10;;;12.90;88.90;;;15.54;61.70;99690.78;5058048;28;20220;-61
2023/03/31 06:41:29;;;;;;;7.83;5.87;;;13.00;89.80;;;15.57;61.48;99692.94;5057940;28;20220;-60
2023/03/31 06:43:56;;;;;;;12.63;6.17;;;13.00;89.10;;;15.57;61.57;99694.78;5055782;28;20694;-62
2023/03/31 06:46:23;;;;;;;7.53;5.77;;;13.00;89.20;;;15.54;61.48;99693.44;5056398;28;20201;-61
2023/03/31 06:48:50;;;;;;;7.90;6.00;;;12.90;89.20;;;15.57;61.45;99692.13;5055197;28;20213;-60
2023/03/31 06:51:17;;;;;;;8.27;5.73;;;13.00;89.40;;;15.59;61.42;99684.78;5056013;28;20623;-60
2023/03/31 06:53:44;;;;;;;8.37;6.10;;;13.00;89.40;;;15.60;62.10;99683.72;5055548;28;20214;-60
2023/03/31 06:56:12;;;;;;;8.20;5.77;;;13.00;89.60;;;15.66;61.64;99696.06;5049852;28;20720;-61
2023/03/31 06:58:39;;;;;;;9.40;5.43;;;13.00;89.60;;;15.71;61.37;99682.91;5036398;28;20194;-60
2023/03/31 07:01:06;;;;;;;8.07;5.57;;;13.00;89.50;;;15.78;61.49;99678.28;5035869;28;20225;-61
2023/03/31 07:03:34;;;;;;;6.57;5.60;;;13.10;89.80;;;15.74;61.58;99677.13;5034291;28;20225;-61
2023/03/31 07:06:01;;;;;;;7.50;5.07;;;13.10;89.70;;;15.76;61.57;99672.38;5034240;28;20233;-61
2023/03/31 07:08:28;;;;;;;8.93;5.53;;;13.10;89.60;;;15.81;61.51;99671.69;5035214;28;20213;-61
2023/03/31 07:10:58;;;;;;;5.90;4.63;;;13.10;89.70;;;15.85;61.13;99672.84;5055409;28;20194;-59
2023/03/31 07:13:27;;;;;;;6.70;4.90;;;13.10;89.80;;;15.88;61.08;99667.84;5055058;28;20194;-63
2023/03/31 07:15:55;;;;;;;4.77;4.23;;;13.20;89.80;;;15.90;61.50;99657.81;5055909;28;20563;-61
2023/03/31 07:18:24;;;;;;;7.37;5.17;;;13.20;89.80;;;15.92;61.56;99669.00;5055096;28;20543;-61
2023/03/31 07:20:52;;;;;;;8.10;4.90;;;13.20;90.00;;;15.86;61.81;99648.72;5035663;28;20249;-63
2023/03/31 07:23:20;;;;;;;5.77;5.17;;;13.20;90.00;;;15.89;61.75;99653.56;5053120;28;20209;-61
2023/03/31 07:25:47;;;;;;;9.93;6.10;;;13.30;90.10;;;15.88;61.85;99646.63;5055419;28;20651;-63
2023/03/31 07:28:15;;;;;;;7.97;4.23;;;13.30;90.10;;;15.97;61.72;99644.41;5055777;28;20194;-61
2023/03/31 07:30:43;;;;;;;7.43;4.87;;;13.30;90.00;;;16.01;62.02;99646.34;5055357;28;20193;-61
2023/03/31 07:33:10;;;;;;;6.63;4.73;;;13.30;90.10;;;16.03;61.93;99649.56;5049326;28;20210;-61
2023/03/31 07:35:39;;;;;;;7.60;5.30;;;13.30;90.10;;;16.03;61.59;99641.63;5047579;28;20577;-62
2023/03/31 07:38:08;;;;;;;8.87;4.90;;;13.40;89.90;;;16.11;61.52;99635.13;5054812;28;20205;-63
2023/03/31 07:40:36;;;;;;;6.13;5.10;;;13.40;90.10;;;16.07;61.54;99640.09;5053837;28;20225;-62
2023/03/31 07:43:04;;;;;;;6.23;5.30;;;13.40;90.00;;;16.11;61.89;99635.94;5055100;28;20759;-61
2023/03/31 07:45:33;;;;;;;5.87;4.60;;;13.40;90.00;;;16.14;61.57;99630.13;5054676;28;20252;-60
2023/03/31 07:48:01;;;;;;;7.53;5.13;;;13.50;90.00;;;16.14;61.68;99627.47;5053528;28;20273;-61
2023/03/31 07:50:29;;;;;;;8.17;5.37;;;13.50;90.00;;;16.16;61.79;99628.03;5047907;28;20199;-62
2023/03/31 07:52:56;;;;;;;5.73;4.90;;;13.50;90.00;;;16.22;61.59;99620.97;5049636;28;20190;-63
2023/03/31 07:55:25;;;;;;;8.07;5.67;;;13.60;90.00;;;16.22;61.86;99616.47;5053650;28;20225;-61
2023/03/31 07:57:52;;;;;;;6.67;4.90;;;13.50;90.00;;;16.23;61.84;99611.97;5049084;28;20246;-64
2023/03/31 08:00:20;;;;;;;5.77;5.20;;;13.60;90.10;;;16.19;62.13;99606.31;5036930;28;20284;-60
2023/03/31 08:02:48;;;;;;;8.77;5.43;;;13.60;90.00;;;16.16;61.87;99604.16;5043460;28;20526;-64
2023/03/31 08:05:20;;;;;;;6.27;5.63;;;13.60;90.00;;;16.21;61.99;99606.88;5050875;28;20217;-63
2023/03/31 08:07:49;;;;;;;5.70;5.17;;;13.60;90.00;;;16.26;61.58;99606.97;5049183;28;20290;-61
2023/03/31 08:10:22;;;;;;;6.43;4.60;;;13.70;90.10;;;16.21;61.79;99596.28;5041638;28;20272;-63
2023/03/31 08:12:49;;;;;;;7.37;5.73;;;13.60;90.00;;;16.19;61.68;99590.41;5026210;28;20539;-62
2023/03/31 08:15:17;;;;;;;7.03;5.20;;;13.70;90.20;;;16.19;61.99;99582.44;5048143;28;20222;-62
2023/03/31 08:17:44;;;;;;;7.70;5.53;;;13.70;90.10;;;16.25;62.04;99580.69;5048846;28;20227;-63
2023/03/31 08:20:12;;;;;;;6.67;5.13;;;13.60;90.20;;;16.32;61.97;99578.69;5052685;28;20217;-62
2023/03/31 08:22:40;;;;;;;9.40;5.03;;;13.70;90.20;;;16.34;62.02;99571.25;5047411;28;20193;-62
2023/03/31 08:25:08;;;;;;;5.40;4.30;;;13.70;90.20;;;16.35;61.44;99566.78;5038631;28;20233;-63
2023/03/31 08:27:38;;;;;;;6.60;5.03;;;13.70;90.00;;;16.42;61.34;99564.75;5032874;28;20205;-62
2023/03/31 08:30:09;;;;;;;14.43;10.53;;;13.80;90.00;;;16.56;61.10;99563.41;5044268;28;20194;-61
2023/03/31 08:32:37;;;;;;;6.73;5.53;;;13.80;90.10;;;16.71;60.96;99561.00;5051574;28;20269;-62
2023/03/31 08:35:07;;;;;;;5.13;4.63;;;13.90;90.20;;;16.82;60.84;99560.09;5046020;28;20229;-62
2023/03/31 08:37:34;;;;;;;6.27;4.90;;;14.00;90.10;;;16.89;60.39;99558.06;5051885;28;20237;-62
2023/03/31 08:40:04;;;;;;;6.83;4.23;;;14.00;89.70;;;16.90;60.34;99549.84;5055244;28;20202;-61
2023/03/31 08:42:40;;;;;;;7.30;4.40;;;14.10;89.40;;;16.83;59.99;99551.06;5045713;28;20194;-62
2023/03/31 08:45:19;;;;;;;5.30;4.17;;;14.10;88.90;;;16.82;59.96;99539.66;5043667;28;20686;-61
2023/03/31 08:47:50;;;;;;;5.40;3.90;;;14.10;88.70;;;16.88;59.77;99535.19;5060746;28;20197;-61
2023/03/31 08:50:23;;;;;;;5.90;3.70;;;14.20;88.80;;;16.96;59.82;99536.63;5044575;28;20585;-60
2023/03/31 08:53:02;;;;;;;6.20;3.70;;;14.20;88.80;;;16.98;59.67;99530.00;5053196;28;20250;-64
2023/03/31 08:55:48;;;;;;;7.93;4.00;;;14.20;88.50;;;17.01;59.54;99524.22;5041684;28;20210;-63
2023/03/31 08:58:31;;;;;;;5.23;3.67;;;14.20;88.60;;;17.12;59.45;99520.63;5050125;28;20275;-63
2023/03/31 09:01:08;;;;;;;5.43;4.00;;;14.30;88.50;;;17.20;59.03;99517.53;5062626;28;20214;-63
2023/03/31 09:03:50;;;;;;;5.60;3.37;;;14.30;88.40;;;17.10;58.96;99525.38;5045547;28;20189;-63
2023/03/31 09:06:33;;;;;;;5.17;3.63;;;14.30;87.60;;;17.02;59.26;99515.16;5040878;28;20212;-63
2023/03/31 09:09:07;;;;;;;4.23;3.00;;;14.30;87.60;;;17.03;59.51;99518.63;5039824;28;20202;-62
2023/03/31 09:11:42;;;;;;;9.03;5.10;;;14.30;87.80;;;17.03;59.50;99511.47;5040159;28;20199;-62
2023/03/31 09:14:29;;;;;;;4.77;3.13;;;14.30;87.90;;;16.93;59.67;99509.47;5045569;28;20217;-62
2023/03/31 09:17:11;;;;;;;5.57;2.90;;;14.30;88.00;;;16.84;59.92;99507.50;5050605;28;20191;-61
2023/03/31 09:19:49;;;;;;;5.73;4.17;;;14.30;88.70;;;16.78;59.91;99497.84;5042113;28;20177;-62
2023/03/31 09:22:23;;;;;;;4.57;2.90;;;14.20;88.30;;;16.72;60.21;99491.66;5048616;28;20235;-62
2023/03/31 09:24:58;;;;;;;6.77;4.83;;;14.20;88.30;;;16.73;60.50;99479.19;5055374;28;20221;-61
2023/03/31 09:27:31;;;;;;;5.37;3.13;;;14.10;88.60;;;16.73;60.65;99480.00;5052278;28;20193;-63
2023/03/31 09:30:04;;;;;;;5.90;4.05;;;14.10;88.90;;;17.35;58.91;99480.47;5050218;28;20883;-61
2023/03/31 09:32:32;;;;;;;4.83;3.13;;;14.10;90.30;;;17.10;59.75;99485.50;5049813;28;20207;-62
2023/03/31 09:35:14;;;;;;;6.27;3.37;;;14.10;89.70;;;17.05;59.99;99472.16;5053150;28;20228;-62
2023/03/31 09:37:42;;;;;;;6.47;4.33;;;14.20;89.60;;;17.10;59.87;99474.06;5049224;28;20190;-61
2023/03/31 09:40:16;;;;;;;6.20;4.80;;;14.20;89.30;;;17.11;59.77;99471.16;5054846;28;20198;-63
2023/03/31 09:42:47;;;;;;;7.13;4.80;;;14.30;89.20;;;17.16;59.74;99457.94;5054321;28;20549;-60
2023/03/31 09:45:16;;;;;;;6.80;3.83;;;14.30;89.20;;;17.17;59.57;99456.88;5050473;28;20221;-63
2023/03/31 09:47:50;;;;;;;6.50;3.63;;;14.30;88.80;;;17.18;59.49;99447.03;5051170;28;20185;-60
2023/03/31 09:50:17;;;;;;;7.33;3.70;;;14.30;88.70;;;17.18;59.25;99455.81;5050337;28;20265;-62
2023/03/31 09:52:55;;;;;;;6.47;3.40;;;14.30;88.10;;;17.17;59.32;99458.72;5037772;28;20706;-62
2023/03/31 09:55:35;;;;;;;7.67;4.33;;;14.30;88.00;;;17.10;58.92;99456.25;5053362;28;20245;-64
2023/03/31 09:58:13;;;;;;;6.57;4.23;;;14.30;87.60;;;16.96;58.89;99452.38;5054546;28;20201;-62
2023/03/31 10:01:00;;;;;;;4.47;3.87;;;14.30;87.50;;;16.95;59.40;99450.75;5051406;28;20693;-64
2023/03/31 10:03:35;;;;;;;5.23;4.00;;;14.30;87.50;;;16.95;59.35;99440.13;5051906;28;20210;-64
2023/03/31 10:06:09;;;;;;;6.07;3.43;;;14.30;87.70;;;17.06;59.19;99436.53;5051910;28;20198;-63
2023/03/31 10:08:41;;;;;;;4.50;3.63;;;14.30;88.00;;;17.15;59.20;99435.03;5048651;28;20192;-64
2023/03/31 10:11:11;;;;;;;4.70;3.60;;;14.30;88.00;;;17.32;59.13;99430.44;5034983;28;20205;-64
2023/03/31 10:13:47;;;;;;;5.53;3.53;;;14.40;88.20;;;17.40;58.40;99421.22;5054902;28;20182;-63
2023/03/31 10:16:22;;;;;;;4.97;3.27;;;14.40;87.80;;;17.45;58.41;99424.72;5047554;28;20210;-62
2023/03/31 10:18:49;;;;;;;3.53;2.60;;;14.50;87.40;;;17.37;58.19;99433.16;5051720;28;20205;-62
2023/03/31 10:21:22;;;;;;;4.10;2.80;;;14.60;86.60;;;17.26;57.91;99415.47;5048835;28;20210;-62
2023/03/31 10:23:51;;;;;;;4.70;2.80;;;14.60;86.10;;;17.30;58.05;99416.59;5048112;28;20652;-64
2023/03/31 10:26:23;;;;;;;6.33;2.70;;;14.60;86.20;;;17.17;58.33;99416.97;5054489;28;20190;-61
2023/03/31 10:28:54;;;;;;;5.53;2.70;;;14.50;85.90;;;17.19;57.99;99414.88;5047936;28;20194;-61
2023/03/31 10:31:33;;;;;;;5.07;2.50;;;14.50;85.80;;;17.30;57.98;99413.94;5044808;28;20227;-60
2023/03/31 10:34:06;;;;;;;4.00;2.40;;;14.60;86.20;;;17.45;57.95;99406.09;5043978;28;20260;-62